createdAt,value
2023-09-17T11:05:09.707Z,23.06
2023-09-17T11:07:57.946Z,23.78
2023-09-17T11:10:43.643Z,24.45
2023-09-17T11:13:28.677Z,25.10
2023-09-17T11:16:16.988Z,25.05
2023-09-17T11:19:05.414Z,25.36
2023-09-17T11:21:51.755Z,25.46
2023-09-17T11:24:36.991Z,25.60
2023-09-17T11:27:22.453Z,25.68
2023-09-17T11:30:15.198Z,25.82
2023-09-17T11:33:00.654Z,26.14
2023-09-17T11:35:49.140Z,25.99
2023-09-17T11:38:34.787Z,25.84
2023-09-17T11:41:26.170Z,26.13
2023-09-17T11:44:13.295Z,26.16
2023-09-17T11:46:59.558Z,26.47
2023-09-17T11:49:47.872Z,26.54
2023-09-17T11:52:35.018Z,26.72
2023-09-17T11:55:36.262Z,26.73
2023-09-17T11:58:24.131Z,26.48
2023-09-17T12:01:09.250Z,26.71
2023-09-17T12:03:57.962Z,26.78
2023-09-17T12:06:45.876Z,26.82
2023-09-17T12:09:38.330Z,26.58
2023-09-17T12:12:47.012Z,26.78
2023-09-17T12:15:34.887Z,26.57
2023-09-17T12:18:21.063Z,26.79
2023-09-17T12:21:12.846Z,26.70
2023-09-17T12:24:05.102Z,26.17
2023-09-17T12:27:08.066Z,26.64
2023-09-17T12:29:57.980Z,26.90
2023-09-17T12:32:52.508Z,27.05
2023-09-17T12:35:42.551Z,26.96
2023-09-17T12:38:32.560Z,27.06
2023-09-17T12:41:25.236Z,26.78
2023-09-17T12:44:25.300Z,26.67
2023-09-17T12:47:11.423Z,26.72
2023-09-17T12:49:59.282Z,26.81
2023-09-17T12:52:46.394Z,26.98
2023-09-17T12:55:33.784Z,26.91
2023-09-17T12:58:19.915Z,26.93
2023-09-17T13:01:12.606Z,26.55
2023-09-17T13:03:58.751Z,26.43
2023-09-17T13:06:48.010Z,26.55
2023-09-17T13:09:33.940Z,26.81
2023-09-17T13:12:21.388Z,26.89
2023-09-17T13:15:19.457Z,26.92
2023-09-17T13:18:22.233Z,26.71
2023-09-17T13:21:10.310Z,26.82
2023-09-17T13:27:02.040Z,26.41
2023-09-17T13:29:49.067Z,26.26
2023-09-17T13:32:35.269Z,26.69
2023-09-17T13:35:23.692Z,26.52
2023-09-17T13:38:12.253Z,26.43
2023-09-17T13:40:57.439Z,26.16
2023-09-17T13:43:42.793Z,26.30
2023-09-17T13:46:28.426Z,26.35
2023-09-17T13:49:13.667Z,26.36
2023-09-17T13:51:58.700Z,26.30
2023-09-17T13:54:44.224Z,26.55
2023-09-17T13:57:29.581Z,26.65
2023-09-17T14:00:15.355Z,26.85
2023-09-17T14:03:02.429Z,26.93
2023-09-17T14:05:47.907Z,26.76
2023-09-17T14:08:32.862Z,26.78
2023-09-17T14:11:18.313Z,26.38
2023-09-17T14:14:03.603Z,26.36
2023-09-17T14:16:49.205Z,26.24
2023-09-17T14:19:34.405Z,26.29
2023-09-17T14:22:19.183Z,26.40
2023-09-17T14:25:05.041Z,26.30
2023-09-17T14:27:50.631Z,26.43
2023-09-17T14:30:35.992Z,26.59
2023-09-17T14:33:21.986Z,26.78
2023-09-17T14:36:07.387Z,26.81
2023-09-17T14:38:53.264Z,26.57
2023-09-17T14:41:38.388Z,26.51
2023-09-17T14:44:23.607Z,26.41
2023-09-17T14:47:09.042Z,26.24
2023-09-17T14:49:54.361Z,26.37
2023-09-17T14:52:39.975Z,26.07
2023-09-17T14:55:24.981Z,26.13
2023-09-17T14:58:10.388Z,26.48
2023-09-17T15:00:55.762Z,26.38
2023-09-17T15:03:41.320Z,26.40
2023-09-17T15:06:26.678Z,26.51
2023-09-17T15:09:11.606Z,26.35
2023-09-17T15:11:57.037Z,26.18
2023-09-17T15:14:42.238Z,26.40
2023-09-17T15:17:27.707Z,26.40
2023-09-17T15:20:13.018Z,25.92
2023-09-17T15:22:58.515Z,25.83
2023-09-17T15:25:43.945Z,26.02
2023-09-17T15:28:29.231Z,25.93
2023-09-17T15:31:14.270Z,25.83
2023-09-17T15:33:59.712Z,25.87
2023-09-17T15:36:45.367Z,26.10
2023-09-17T15:39:30.722Z,26.00
2023-09-17T15:42:16.133Z,26.08
2023-09-17T15:45:01.421Z,25.90
2023-09-17T15:47:46.684Z,25.80
2023-09-17T15:50:32.128Z,25.61
2023-09-17T15:53:17.692Z,25.44
2023-09-17T15:56:02.805Z,25.69
2023-09-17T15:58:48.565Z,25.82
2023-09-17T16:01:33.760Z,25.93
2023-09-17T16:04:19.178Z,25.95
2023-09-17T16:07:04.494Z,26.04
2023-09-17T16:09:52.265Z,25.85
2023-09-17T16:12:40.873Z,25.50
2023-09-17T16:15:29.641Z,25.47
2023-09-17T16:18:15.020Z,25.53
2023-09-17T16:21:00.327Z,25.22
2023-09-17T16:23:45.834Z,25.41
2023-09-17T16:26:32.300Z,25.59
2023-09-17T16:29:19.785Z,25.60
2023-09-17T16:32:04.792Z,25.72
2023-09-17T16:34:50.245Z,25.80
2023-09-17T16:37:35.734Z,25.81
2023-09-17T16:40:21.059Z,25.82
2023-09-17T16:43:09.459Z,25.78
2023-09-17T16:45:56.372Z,25.76
2023-09-17T16:48:41.565Z,25.73
2023-09-17T16:51:27.051Z,25.63
2023-09-17T16:54:12.459Z,25.57
2023-09-17T16:56:57.645Z,25.47
2023-09-17T16:59:43.294Z,25.33
2023-09-17T17:02:28.719Z,25.29
2023-09-17T17:05:14.529Z,25.26
2023-09-17T17:07:59.796Z,25.16
2023-09-17T17:10:45.253Z,25.03
2023-09-17T17:13:30.723Z,24.92
2023-09-17T17:16:16.088Z,24.74
2023-09-17T17:19:01.314Z,24.62
2023-09-17T17:21:46.679Z,24.46
2023-09-17T17:24:32.147Z,24.36
2023-09-17T17:27:17.705Z,24.29
2023-09-17T17:30:03.332Z,24.13
2023-09-17T17:32:48.727Z,23.94
2023-09-17T17:35:34.109Z,23.67
2023-09-17T17:38:19.577Z,23.56
2023-09-17T17:41:04.921Z,23.48
2023-09-17T17:43:50.278Z,23.41
2023-09-17T17:46:36.009Z,23.46
2023-09-17T17:49:21.441Z,23.36
2023-09-17T17:52:06.850Z,23.22
2023-09-17T17:54:51.941Z,23.11
2023-09-17T17:57:36.785Z,22.98
2023-09-17T18:00:22.167Z,22.88
2023-09-17T18:03:07.629Z,22.89
2023-09-17T18:05:53.323Z,22.83
2023-09-17T18:08:38.718Z,22.61
2023-09-17T18:11:24.277Z,22.62
2023-09-17T18:14:09.926Z,22.51
2023-09-17T18:16:55.251Z,22.45
2023-09-17T18:19:40.537Z,22.44
2023-09-17T18:22:25.875Z,22.41
2023-09-17T18:25:11.153Z,22.38
2023-09-17T18:27:56.510Z,22.30
2023-09-17T18:30:42.046Z,22.24
2023-09-17T18:33:27.444Z,22.18
2023-09-17T18:36:12.831Z,22.04
2023-09-17T18:38:58.237Z,21.83
2023-09-17T18:41:43.773Z,21.70
2023-09-17T18:44:29.351Z,21.55
2023-09-17T18:47:15.569Z,21.41
2023-09-17T18:50:00.927Z,21.27
2023-09-17T18:52:46.452Z,21.20
2023-09-17T18:55:31.413Z,21.16
2023-09-17T18:58:17.069Z,21.13
2023-09-17T19:01:02.466Z,21.11
2023-09-17T19:03:48.621Z,21.09
2023-09-17T19:06:34.333Z,21.03
2023-09-17T19:09:19.118Z,20.97
2023-09-17T19:12:04.804Z,20.90
2023-09-17T19:14:50.027Z,20.84
2023-09-17T19:17:35.342Z,20.79
2023-09-17T19:20:20.625Z,20.71
2023-09-17T19:23:06.080Z,20.64
2023-09-17T19:25:51.764Z,20.58
2023-09-17T19:28:38.683Z,20.40
2023-09-17T19:31:23.868Z,20.34
2023-09-17T19:34:09.588Z,20.27
2023-09-17T19:36:54.931Z,20.27
2023-09-17T19:39:40.352Z,20.26
2023-09-17T19:42:25.638Z,20.23
2023-09-17T19:45:10.774Z,20.22
2023-09-17T19:47:56.244Z,20.19
2023-09-17T19:50:41.633Z,20.13
2023-09-17T19:53:26.610Z,20.07
2023-09-17T19:56:11.710Z,20.01
2023-09-17T19:58:57.649Z,19.96
2023-09-17T20:01:43.844Z,19.88
2023-09-17T20:04:30.709Z,19.83
2023-09-17T20:07:15.958Z,19.78
2023-09-17T20:10:02.246Z,19.73
2023-09-17T20:12:47.700Z,19.68
2023-09-17T20:15:33.276Z,19.57
2023-09-17T20:18:18.608Z,19.50
2023-09-17T20:21:04.066Z,19.46
2023-09-17T20:23:49.297Z,19.43
2023-09-17T20:26:34.184Z,19.33
2023-09-17T20:29:19.664Z,19.25
2023-09-17T20:32:05.106Z,19.21
2023-09-17T20:34:50.289Z,19.16
2023-09-17T20:37:35.651Z,19.15
2023-09-17T20:40:21.009Z,19.14
2023-09-17T20:43:06.396Z,19.12
2023-09-17T20:45:51.641Z,19.11
2023-09-17T20:48:37.087Z,19.12
2023-09-17T20:51:22.438Z,19.10
2023-09-17T20:54:07.808Z,19.07
2023-09-17T20:56:52.818Z,19.03
2023-09-17T20:59:38.489Z,18.96
2023-09-17T21:02:27.023Z,18.90
2023-09-17T21:05:12.637Z,18.85
2023-09-17T21:07:58.124Z,18.79
2023-09-17T21:10:43.939Z,18.76
2023-09-17T21:13:28.996Z,18.73
2023-09-17T21:16:17.037Z,18.70
2023-09-17T21:19:02.779Z,18.68
2023-09-17T21:21:48.146Z,18.61
2023-09-17T21:24:33.588Z,18.57
2023-09-17T21:27:19.010Z,18.54
2023-09-17T21:30:04.762Z,18.46
2023-09-17T21:32:49.668Z,18.41
2023-09-17T21:35:34.988Z,18.42
2023-09-17T21:38:20.151Z,18.39
2023-09-17T21:41:05.551Z,18.40
2023-09-17T21:43:50.968Z,18.37
2023-09-17T21:46:36.518Z,18.34
2023-09-17T21:49:22.379Z,18.29
2023-09-17T21:52:07.742Z,18.18
2023-09-17T21:54:52.876Z,18.12
2023-09-17T21:57:38.388Z,18.10
2023-09-17T22:00:23.810Z,17.95
2023-09-17T22:03:09.392Z,17.91
2023-09-17T22:05:54.504Z,17.85
2023-09-17T22:08:39.592Z,17.74
2023-09-17T22:11:25.101Z,17.73
2023-09-17T22:14:10.226Z,17.68
2023-09-17T22:16:55.896Z,17.69
2023-09-17T22:19:41.361Z,17.68
2023-09-17T22:22:26.816Z,17.66
2023-09-17T22:25:12.297Z,17.64
2023-09-17T22:27:57.894Z,17.59
2023-09-17T22:30:42.646Z,17.58
2023-09-17T22:33:28.063Z,17.57
2023-09-17T22:36:13.534Z,17.58
2023-09-17T22:38:58.828Z,17.54
2023-09-17T22:41:44.263Z,17.52
2023-09-17T22:44:29.685Z,17.47
2023-09-17T22:47:16.207Z,17.46
2023-09-17T22:50:01.984Z,17.43
2023-09-17T22:52:46.924Z,17.37
2023-09-17T22:55:32.189Z,17.31
2023-09-17T22:58:17.703Z,17.25
2023-09-17T23:01:02.606Z,17.21
2023-09-17T23:03:48.060Z,17.19
2023-09-17T23:06:34.205Z,17.18
2023-09-17T23:09:19.372Z,17.14
2023-09-17T23:12:05.133Z,17.14
2023-09-17T23:14:50.234Z,17.12
2023-09-17T23:17:36.296Z,17.10
2023-09-17T23:20:21.414Z,17.07
2023-09-17T23:23:06.777Z,17.05
2023-09-17T23:25:52.349Z,17.03
2023-09-17T23:28:37.584Z,17.00
2023-09-17T23:31:23.194Z,16.98
2023-09-17T23:34:08.384Z,16.96
2023-09-17T23:36:53.291Z,16.87
2023-09-17T23:39:38.638Z,16.85
2023-09-17T23:42:24.056Z,16.84
2023-09-17T23:45:09.547Z,16.79
2023-09-17T23:47:54.594Z,16.79
2023-09-17T23:50:41.481Z,16.68
2023-09-17T23:53:26.884Z,16.60
2023-09-17T23:56:12.133Z,16.64
2023-09-17T23:58:57.613Z,16.64
